createdAt,value
2018-05-16T00:00:34.278Z,10.30
2018-05-16T00:03:03.070Z,9.97
2018-05-16T00:05:30.541Z,9.60
2018-05-16T00:07:58.779Z,9.83
2018-05-16T00:10:26.261Z,9.97
2018-05-16T00:12:54.502Z,11.40
2018-05-16T00:15:21.969Z,8.83
2018-05-16T00:17:49.454Z,12.67
2018-05-16T00:20:17.688Z,12.73
2018-05-16T00:22:45.153Z,9.83
2018-05-16T00:25:12.629Z,10.63
2018-05-16T00:27:40.873Z,9.83
2018-05-16T00:30:08.333Z,11.23
2018-05-16T00:32:35.823Z,11.57
2018-05-16T00:35:03.296Z,9.43
2018-05-16T00:37:30.758Z,9.07
2018-05-16T00:39:58.254Z,10.00
2018-05-16T00:42:25.721Z,10.60
2018-05-16T00:44:53.203Z,11.23
2018-05-16T00:47:21.465Z,12.20
2018-05-16T00:49:48.944Z,11.37
2018-05-16T00:52:16.477Z,13.20
2018-05-16T00:54:43.946Z,12.07
2018-05-16T00:57:12.193Z,12.63
2018-05-16T00:59:39.677Z,13.53
2018-05-16T01:02:07.906Z,12.73
2018-05-16T01:04:35.372Z,10.57
2018-05-16T01:07:02.853Z,13.47
2018-05-16T01:09:31.088Z,11.23
2018-05-16T01:11:58.570Z,11.60
2018-05-16T01:14:26.029Z,14.77
2018-05-16T01:16:53.526Z,12.27
2018-05-16T01:19:20.980Z,11.10
2018-05-16T01:21:48.479Z,13.07
2018-05-16T01:24:15.956Z,11.73
2018-05-16T01:26:43.428Z,10.63
2018-05-16T01:29:11.677Z,12.43
2018-05-16T01:31:39.257Z,10.80
2018-05-16T01:34:07.486Z,7.33
2018-05-16T01:36:34.957Z,8.83
2018-05-16T01:39:02.437Z,9.73
2018-05-16T01:41:30.668Z,8.60
2018-05-16T01:43:58.139Z,9.47
2018-05-16T01:46:25.614Z,10.67
2018-05-16T01:49:04.991Z,6.03
2018-05-16T01:51:32.461Z,10.73
2018-05-16T01:53:59.934Z,7.50
2018-05-16T01:56:27.398Z,8.07
2018-05-16T01:58:54.866Z,7.83
2018-05-16T02:01:22.340Z,8.83
2018-05-16T02:03:50.565Z,7.87
2018-05-16T02:06:18.052Z,7.77
2018-05-16T02:08:45.533Z,7.90
2018-05-16T02:11:13.777Z,7.90
2018-05-16T02:13:41.245Z,8.03
2018-05-16T02:16:08.725Z,6.37
2018-05-16T02:18:36.953Z,7.33
2018-05-16T02:21:04.435Z,6.60
2018-05-16T02:23:31.898Z,8.37
2018-05-16T02:26:00.137Z,8.30
2018-05-16T02:28:27.601Z,9.90
2018-05-16T02:30:55.092Z,9.00
2018-05-16T02:33:23.014Z,9.43
2018-05-16T02:35:50.489Z,10.57
2018-05-16T02:38:17.962Z,7.87
2018-05-16T02:40:45.438Z,8.20
2018-05-16T02:43:12.969Z,9.00
2018-05-16T02:45:40.420Z,9.17
2018-05-16T02:48:07.918Z,7.43
2018-05-16T02:50:35.385Z,7.80
2018-05-16T02:53:02.889Z,10.50
2018-05-16T02:55:30.357Z,10.73
2018-05-16T02:57:58.616Z,9.37
2018-05-16T03:00:26.093Z,11.03
2018-05-16T03:02:53.570Z,7.13
2018-05-16T03:05:21.794Z,9.57
2018-05-16T03:07:49.287Z,7.80
2018-05-16T03:10:17.619Z,11.10
2018-05-16T03:12:45.097Z,8.23
2018-05-16T03:15:12.574Z,8.50
2018-05-16T03:17:40.809Z,10.40
2018-05-16T03:20:08.289Z,11.63
2018-05-16T03:22:35.770Z,12.10
2018-05-16T03:25:03.257Z,9.43
2018-05-16T03:27:30.717Z,10.70
2018-05-16T03:29:58.202Z,9.77
2018-05-16T03:32:25.659Z,9.23
2018-05-16T03:34:53.133Z,13.50
2018-05-16T03:37:20.624Z,8.87
2018-05-16T03:39:48.113Z,10.80
2018-05-16T03:42:15.585Z,10.83
2018-05-16T03:44:43.137Z,10.57
2018-05-16T03:47:10.600Z,9.17
2018-05-16T03:49:38.072Z,11.63
2018-05-16T03:52:06.380Z,11.27
2018-05-16T03:54:33.815Z,13.83
2018-05-16T03:57:02.058Z,10.00
2018-05-16T03:59:41.455Z,9.63
2018-05-16T04:02:20.882Z,11.83
2018-05-16T04:04:48.282Z,10.27
2018-05-16T04:07:15.769Z,12.33
2018-05-16T04:09:43.997Z,12.27
2018-05-16T04:12:11.473Z,10.70
2018-05-16T04:14:38.944Z,12.73
2018-05-16T04:17:07.201Z,12.03
2018-05-16T04:19:34.669Z,11.93
2018-05-16T04:22:02.906Z,10.57
2018-05-16T04:24:30.377Z,11.10
2018-05-16T04:26:57.854Z,10.23
2018-05-16T04:29:26.154Z,8.93
2018-05-16T04:31:54.374Z,8.53
2018-05-16T04:34:21.862Z,10.30
2018-05-16T04:36:50.103Z,7.80
2018-05-16T04:39:17.578Z,11.37
2018-05-16T04:41:45.104Z,8.30
2018-05-16T04:44:13.281Z,7.73
2018-05-16T04:46:40.749Z,10.03
2018-05-16T04:49:08.226Z,6.33
2018-05-16T04:51:35.688Z,7.07
2018-05-16T04:54:03.949Z,6.83
2018-05-16T04:56:31.521Z,11.03
2018-05-16T04:58:59.761Z,8.23
2018-05-16T05:01:27.244Z,7.67
2018-05-16T05:03:54.731Z,10.07
2018-05-16T05:06:22.214Z,7.97
2018-05-16T05:08:49.739Z,8.67
2018-05-16T05:11:17.185Z,7.50
2018-05-16T05:13:45.428Z,11.37
2018-05-16T05:16:12.897Z,10.53
2018-05-16T05:18:40.386Z,7.33
2018-05-16T05:21:08.694Z,7.63
2018-05-16T05:23:36.193Z,14.37
2018-05-16T05:26:04.451Z,9.60
2018-05-16T05:28:31.912Z,9.00
2018-05-16T05:30:59.384Z,7.87
2018-05-16T05:33:26.841Z,7.73
2018-05-16T05:35:55.093Z,6.43
2018-05-16T05:38:22.562Z,10.53
2018-05-16T05:40:50.078Z,9.57
2018-05-16T05:43:17.564Z,8.20
2018-05-16T05:45:45.021Z,9.47
2018-05-16T05:48:12.510Z,11.17
2018-05-16T05:50:40.744Z,11.07
2018-05-16T05:53:08.218Z,9.87
2018-05-16T05:55:36.180Z,16.63
2018-05-16T05:58:03.646Z,8.90
2018-05-16T06:00:31.887Z,10.20
2018-05-16T06:02:59.365Z,9.60
2018-05-16T06:05:26.910Z,7.27
2018-05-16T06:07:54.357Z,9.00
2018-05-16T06:10:21.820Z,7.70
2018-05-16T06:12:49.322Z,7.70
2018-05-16T06:15:16.761Z,9.93
2018-05-16T06:17:45.002Z,6.73
2018-05-16T06:20:12.478Z,10.17
2018-05-16T06:22:39.957Z,7.03
2018-05-16T06:25:08.185Z,7.77
2018-05-16T06:27:35.658Z,7.77
2018-05-16T06:30:03.123Z,7.73
2018-05-16T06:32:31.378Z,10.50
2018-05-16T06:34:58.840Z,9.93
2018-05-16T06:37:26.341Z,11.47
2018-05-16T06:39:54.534Z,8.80
2018-05-16T06:42:22.025Z,6.82
2018-05-16T06:44:49.486Z,8.13
2018-05-16T06:47:16.953Z,8.88
2018-05-16T06:49:45.189Z,7.45
2018-05-16T06:52:12.655Z,8.38
2018-05-16T06:54:40.129Z,9.38
2018-05-16T06:57:07.608Z,10.00
2018-05-16T06:59:35.842Z,9.88
2018-05-16T07:02:03.333Z,8.90
2018-05-16T07:04:31.573Z,7.70
2018-05-16T07:06:59.127Z,6.93
2018-05-16T07:09:27.303Z,7.05
2018-05-16T07:11:54.756Z,8.05
2018-05-16T07:14:22.242Z,9.43
2018-05-16T07:16:50.557Z,10.35
2018-05-16T07:19:18.042Z,8.70
2018-05-16T07:21:45.517Z,7.95
2018-05-16T07:24:13.029Z,7.32
2018-05-16T07:26:40.517Z,8.32
2018-05-16T07:29:07.991Z,7.65
2018-05-16T07:31:36.230Z,7.03
2018-05-16T07:34:03.696Z,8.60
2018-05-16T07:36:31.311Z,8.75
2018-05-16T07:38:58.796Z,8.52
2018-05-16T07:41:26.280Z,6.40
2018-05-16T07:43:53.767Z,11.60
2018-05-16T07:46:22.031Z,7.70
2018-05-16T07:48:50.269Z,8.48
2018-05-16T07:51:17.755Z,7.15
2018-05-16T07:53:45.223Z,12.68
2018-05-16T07:56:13.482Z,7.25
2018-05-16T07:58:40.933Z,6.93
2018-05-16T08:01:08.407Z,7.70
2018-05-16T08:03:36.646Z,8.47
2018-05-16T08:06:04.124Z,7.50
2018-05-16T08:08:31.607Z,12.60
2018-05-16T08:10:59.077Z,10.47
2018-05-16T08:13:26.545Z,7.67
2018-05-16T08:15:54.007Z,6.80
2018-05-16T08:18:21.494Z,9.95
2018-05-16T08:20:48.955Z,7.65
2018-05-16T08:23:16.427Z,8.47
2018-05-16T08:25:44.658Z,9.80
2018-05-16T08:28:12.135Z,8.13
2018-05-16T08:30:39.604Z,11.93
2018-05-16T08:33:07.098Z,8.10
2018-05-16T08:35:34.552Z,9.57
2018-05-16T08:38:02.055Z,8.33
2018-05-16T08:40:36.330Z,8.73
2018-05-16T08:43:05.278Z,9.20
2018-05-16T08:45:35.792Z,7.20
2018-05-16T08:48:04.109Z,7.83
2018-05-16T08:50:39.060Z,10.17
2018-05-16T08:53:06.542Z,9.97
2018-05-16T08:55:34.010Z,7.87
2018-05-16T08:58:01.586Z,11.57
2018-05-16T09:00:29.046Z,8.93
2018-05-16T09:02:57.325Z,8.23
2018-05-16T09:05:25.568Z,7.13
2018-05-16T09:07:53.091Z,12.07
2018-05-16T09:10:20.565Z,8.40
2018-05-16T09:12:48.029Z,7.53
2018-05-16T09:15:15.520Z,9.47
2018-05-16T09:17:43.002Z,7.00
2018-05-16T09:20:10.483Z,8.70
2018-05-16T09:22:37.943Z,8.17
2018-05-16T09:25:05.416Z,9.83
2018-05-16T09:27:32.880Z,9.13
2018-05-16T09:30:00.363Z,6.90
2018-05-16T09:35:31.958Z,8.60
2018-05-16T09:38:00.197Z,8.53
2018-05-16T09:40:27.659Z,8.53
2018-05-16T09:42:55.122Z,8.37
2018-05-16T09:45:22.596Z,7.17
2018-05-16T09:47:50.157Z,8.17
2018-05-16T09:50:17.638Z,10.13
2018-05-16T09:52:45.872Z,12.00
2018-05-16T09:55:13.737Z,10.00
2018-05-16T09:57:41.219Z,7.83
2018-05-16T10:00:08.693Z,9.53
2018-05-16T10:02:36.943Z,9.97
2018-05-16T10:05:04.410Z,7.37
2018-05-16T10:07:32.662Z,9.17
2018-05-16T10:10:00.145Z,7.23
2018-05-16T10:12:28.381Z,7.17
2018-05-16T10:14:55.907Z,8.93
2018-05-16T10:17:23.381Z,7.87
2018-05-16T10:19:50.861Z,8.87
2018-05-16T10:22:18.346Z,8.53
2018-05-16T10:24:46.574Z,7.13
2018-05-16T10:27:14.055Z,8.67
2018-05-16T10:29:41.556Z,11.97
2018-05-16T10:32:09.013Z,6.90
2018-05-16T10:34:36.522Z,8.40
2018-05-16T10:37:03.949Z,7.37
2018-05-16T10:39:31.454Z,11.90
2018-05-16T10:41:59.705Z,7.17
2018-05-16T10:44:27.310Z,8.07
2018-05-16T10:46:54.770Z,7.30
2018-05-16T10:49:22.238Z,11.43
2018-05-16T10:51:49.697Z,8.80
2018-05-16T10:54:17.178Z,11.83
2018-05-16T10:56:44.654Z,6.97
2018-05-16T10:59:12.906Z,7.47
2018-05-16T11:01:40.397Z,8.70
2018-05-16T11:04:07.908Z,8.17
2018-05-16T11:06:35.373Z,7.13
2018-05-16T11:09:02.850Z,8.67
2018-05-16T11:11:30.310Z,9.30
2018-05-16T11:13:57.775Z,9.17
2018-05-16T11:16:26.002Z,8.50
2018-05-16T11:18:53.594Z,9.17
2018-05-16T11:21:21.929Z,7.50
2018-05-16T11:23:49.339Z,8.07
2018-05-16T11:26:17.668Z,11.47
2018-05-16T11:28:45.148Z,9.07
2018-05-16T11:31:12.605Z,11.77
2018-05-16T11:33:40.066Z,8.10
2018-05-16T11:36:07.543Z,9.60
2018-05-16T11:38:35.768Z,9.73
2018-05-16T11:41:03.354Z,9.03
2018-05-16T11:43:30.877Z,12.73
2018-05-16T11:45:58.357Z,7.57
2018-05-16T11:48:25.813Z,6.17
2018-05-16T11:50:53.300Z,7.67
2018-05-16T11:53:21.524Z,7.50
2018-05-16T11:55:48.995Z,8.27
2018-05-16T11:58:16.457Z,6.87
2018-05-16T12:00:43.946Z,6.73
2018-05-16T12:03:11.397Z,5.80
2018-05-16T12:05:38.930Z,5.00
2018-05-16T12:08:06.437Z,5.90
2018-05-16T12:10:33.910Z,5.30
2018-05-16T12:13:01.377Z,6.37
2018-05-16T12:15:28.902Z,6.47
2018-05-16T12:17:56.357Z,5.10
2018-05-16T12:20:23.917Z,6.70
2018-05-16T12:22:51.385Z,6.17
2018-05-16T12:25:18.865Z,5.50
2018-05-16T12:27:46.342Z,7.00
2018-05-16T12:30:13.803Z,6.03
2018-05-16T12:32:42.062Z,6.07
2018-05-16T12:35:09.622Z,5.07
2018-05-16T12:37:37.106Z,4.50
2018-05-16T12:40:05.331Z,3.80
2018-05-16T12:42:32.802Z,4.63
2018-05-16T12:45:00.268Z,7.50
2018-05-16T12:47:27.752Z,6.50
2018-05-16T12:49:55.216Z,8.57
2018-05-16T12:52:22.850Z,5.17
2018-05-16T12:54:51.090Z,5.57
2018-05-16T12:57:18.557Z,10.17
2018-05-16T12:59:46.066Z,6.77
2018-05-16T13:02:14.297Z,8.13
2018-05-16T13:04:41.870Z,6.33
2018-05-16T13:07:09.416Z,6.70
2018-05-16T13:09:36.932Z,8.50
2018-05-16T13:12:04.520Z,5.83
2018-05-16T13:14:32.240Z,7.13
2018-05-16T13:16:59.709Z,7.77
2018-05-16T13:19:27.193Z,5.97
2018-05-16T13:21:54.665Z,6.83
2018-05-16T13:24:22.121Z,7.33
2018-05-16T13:26:50.362Z,6.93
2018-05-16T13:29:17.858Z,6.80
2018-05-16T13:31:46.085Z,6.40
2018-05-16T13:34:13.566Z,8.40
2018-05-16T13:36:41.030Z,11.27
2018-05-16T13:39:08.503Z,8.90
2018-05-16T13:41:36.765Z,8.63
2018-05-16T13:44:04.996Z,9.90
2018-05-16T13:46:32.486Z,9.43
2018-05-16T13:48:59.963Z,7.83
2018-05-16T13:51:28.217Z,8.10
2018-05-16T13:53:55.677Z,7.67
2018-05-16T13:56:23.910Z,7.73
2018-05-16T13:58:51.382Z,8.60
2018-05-16T14:01:18.871Z,6.30
2018-05-16T14:03:47.107Z,6.97
2018-05-16T14:06:14.570Z,8.73
2018-05-16T14:08:42.053Z,9.10
2018-05-16T14:11:09.629Z,9.00
2018-05-16T14:13:37.873Z,7.73
2018-05-16T14:16:05.328Z,6.27
2018-05-16T14:18:32.820Z,8.73
2018-05-16T14:21:00.321Z,6.07
2018-05-16T14:23:27.823Z,5.87
2018-05-16T14:25:56.056Z,6.33
2018-05-16T14:28:23.566Z,5.53
2018-05-16T14:30:51.839Z,6.20
2018-05-16T14:33:19.325Z,6.80
2018-05-16T14:35:46.836Z,5.13
2018-05-16T14:38:14.258Z,4.70
2018-05-16T14:40:41.732Z,6.73
2018-05-16T14:43:09.202Z,6.17
2018-05-16T14:45:37.439Z,4.93
2018-05-16T14:48:04.950Z,5.33
2018-05-16T14:50:33.176Z,5.53
2018-05-16T14:53:00.682Z,8.30
2018-05-16T14:55:28.929Z,5.40
2018-05-16T14:57:56.377Z,4.80
2018-05-16T15:00:24.622Z,7.10
2018-05-16T15:02:52.118Z,9.47
2018-05-16T15:05:19.762Z,12.87
2018-05-16T15:07:47.247Z,5.73
2018-05-16T15:10:15.484Z,5.77
2018-05-16T15:12:42.986Z,5.60
2018-05-16T15:15:11.210Z,6.27
2018-05-16T15:17:38.704Z,5.67
2018-05-16T15:20:07.569Z,9.00
2018-05-16T15:22:35.035Z,7.20
2018-05-16T15:25:02.506Z,5.10
2018-05-16T15:27:30.829Z,7.27
2018-05-16T15:29:58.236Z,6.80
2018-05-16T15:32:26.476Z,7.83
2018-05-16T15:34:53.934Z,6.37
2018-05-16T15:37:23.253Z,8.53
2018-05-16T15:39:50.739Z,5.60
2018-05-16T15:42:18.214Z,6.03
2018-05-16T15:44:45.678Z,5.37
2018-05-16T15:47:13.159Z,9.83
2018-05-16T15:49:40.621Z,7.63
2018-05-16T15:52:08.107Z,6.97
2018-05-16T15:54:36.368Z,9.93
2018-05-16T15:57:03.833Z,9.33
2018-05-16T15:59:32.142Z,7.23
2018-05-16T16:01:59.624Z,7.90
2018-05-16T16:04:27.091Z,7.20
2018-05-16T16:06:54.562Z,7.20
2018-05-16T16:09:22.051Z,8.93
2018-05-16T16:11:49.532Z,9.33
2018-05-16T16:14:16.993Z,7.00
2018-05-16T16:16:44.445Z,9.80
2018-05-16T16:19:11.938Z,7.17
2018-05-16T16:21:40.155Z,8.10
2018-05-16T16:24:07.619Z,8.93
2018-05-16T16:26:35.097Z,8.97
2018-05-16T16:29:02.576Z,7.13
2018-05-16T16:31:31.547Z,6.20
2018-05-16T16:33:59.052Z,9.87
2018-05-16T16:36:26.497Z,7.93
2018-05-16T16:38:54.752Z,8.27
2018-05-16T16:41:22.191Z,8.63
2018-05-16T16:43:49.666Z,9.30
2018-05-16T16:46:17.134Z,9.83
2018-05-16T16:48:45.034Z,9.37
2018-05-16T16:51:12.512Z,16.57
2018-05-16T16:53:39.989Z,14.10
2018-05-16T16:56:07.465Z,16.93
2018-05-16T16:58:35.735Z,12.47
2018-05-16T17:01:04.731Z,11.60
2018-05-16T17:03:32.227Z,11.70
2018-05-16T17:05:59.756Z,12.20
2018-05-16T17:08:27.998Z,14.33
2018-05-16T17:10:55.477Z,13.23
2018-05-16T17:13:23.839Z,13.57
2018-05-16T17:15:51.334Z,11.03
2018-05-16T17:18:18.841Z,11.40
2018-05-16T17:20:46.391Z,8.07
2018-05-16T17:23:14.601Z,8.37
2018-05-16T17:25:42.123Z,6.37
2018-05-16T17:28:09.603Z,7.53
2018-05-16T17:30:37.322Z,11.10
2018-05-16T17:33:05.115Z,7.40
2018-05-16T17:35:32.685Z,8.27
2018-05-16T17:38:00.261Z,9.73
2018-05-16T17:40:28.660Z,12.83
2018-05-16T17:42:56.249Z,15.10
2018-05-16T17:45:23.761Z,22.63
2018-05-16T17:47:51.333Z,23.33
2018-05-16T17:50:18.863Z,28.92
2018-05-16T17:52:47.181Z,25.07
2018-05-16T17:55:14.765Z,23.90
2018-05-16T17:57:42.402Z,21.40
2018-05-16T18:00:09.909Z,17.60
2018-05-16T18:02:37.512Z,16.23
2018-05-16T18:05:05.266Z,13.87
2018-05-16T18:07:33.009Z,18.47
2018-05-16T18:10:01.382Z,16.37
2018-05-16T18:12:29.722Z,16.93
2018-05-16T18:15:10.258Z,15.87
2018-05-16T18:17:37.780Z,14.30
2018-05-16T18:20:06.523Z,14.97
2018-05-16T18:22:34.011Z,17.07
2018-05-16T18:25:01.580Z,18.13
2018-05-16T18:27:29.835Z,19.73
2018-05-16T18:29:57.346Z,19.00
2018-05-16T18:32:24.837Z,20.27
2018-05-16T18:34:52.331Z,21.33
2018-05-16T18:37:20.622Z,14.07
2018-05-16T18:39:48.163Z,10.63
2018-05-16T18:42:15.634Z,10.10
2018-05-16T18:44:43.111Z,14.07
2018-05-16T18:47:10.608Z,13.87
2018-05-16T18:49:38.100Z,13.03
2018-05-16T18:52:05.634Z,10.87
2018-05-16T18:54:33.896Z,9.47
2018-05-16T18:57:01.397Z,8.63
2018-05-16T18:59:29.462Z,8.47
2018-05-16T19:01:57.002Z,7.70
2018-05-16T19:04:25.249Z,6.53
2018-05-16T19:06:52.749Z,7.43
2018-05-16T19:09:20.247Z,6.93
2018-05-16T19:11:47.731Z,8.93
2018-05-16T19:14:15.244Z,13.20
2018-05-16T19:16:42.789Z,15.37
2018-05-16T19:19:10.262Z,14.30
2018-05-16T19:21:38.279Z,14.53
2018-05-16T19:24:06.539Z,15.10
2018-05-16T19:26:33.998Z,16.20
2018-05-16T19:29:01.555Z,16.63
2018-05-16T19:31:29.055Z,18.47
2018-05-16T19:33:57.689Z,15.73
2018-05-16T19:36:25.358Z,18.50
2018-05-16T19:38:53.730Z,17.80
2018-05-16T19:41:21.295Z,12.87
2018-05-16T19:43:49.629Z,11.50
2018-05-16T19:46:18.079Z,14.03
2018-05-16T19:48:46.327Z,13.40
2018-05-16T19:51:14.568Z,14.40
2018-05-16T19:53:42.642Z,15.40
2018-05-16T19:56:10.117Z,17.30
2018-05-16T19:58:38.430Z,13.77
2018-05-16T20:01:05.903Z,13.70
2018-05-16T20:03:33.447Z,13.23
2018-05-16T20:06:01.030Z,14.73
2018-05-16T20:08:28.533Z,12.30
2018-05-16T20:10:56.833Z,11.60
2018-05-16T20:13:25.184Z,11.97
2018-05-16T20:15:52.762Z,12.93
2018-05-16T20:18:20.470Z,11.77
2018-05-16T20:20:47.996Z,12.07
2018-05-16T20:23:15.651Z,14.17
2018-05-16T20:25:44.024Z,15.10
2018-05-16T20:28:11.521Z,15.87
2018-05-16T20:30:39.062Z,19.27
2018-05-16T20:33:06.563Z,19.93
2018-05-16T20:35:34.057Z,23.33
2018-05-16T20:38:01.542Z,20.63
2018-05-16T20:40:29.089Z,20.73
2018-05-16T20:42:56.572Z,25.93
2018-05-16T20:45:24.138Z,24.27
2018-05-16T20:47:51.624Z,25.83
2018-05-16T20:50:19.153Z,21.53
2018-05-16T20:52:46.701Z,22.07
2018-05-16T20:55:14.184Z,18.70
2018-05-16T20:57:42.486Z,18.17
2018-05-16T21:00:09.960Z,20.03
2018-05-16T21:02:37.451Z,22.13
2018-05-16T21:05:05.044Z,23.90
2018-05-16T21:07:32.552Z,25.03
2018-05-16T21:10:00.029Z,23.57
2018-05-16T21:12:28.292Z,24.87
2018-05-16T21:14:55.762Z,22.93
2018-05-16T21:17:24.009Z,24.73
2018-05-16T21:19:51.736Z,25.47
2018-05-16T21:22:19.223Z,22.70
2018-05-16T21:24:46.693Z,31.33
2018-05-16T21:27:14.371Z,25.77
2018-05-16T21:29:42.619Z,26.43
2018-05-16T21:32:10.105Z,25.03
2018-05-16T21:34:38.547Z,25.13
2018-05-16T21:37:08.614Z,28.50
2018-05-16T21:39:37.049Z,33.63
2018-05-16T21:42:07.361Z,22.33
2018-05-16T21:44:38.020Z,21.93
2018-05-16T21:47:05.699Z,21.10
2018-05-16T21:49:33.410Z,19.47
2018-05-16T21:52:02.311Z,26.23
2018-05-16T21:54:31.700Z,26.00
2018-05-16T21:57:02.036Z,30.87
2018-05-16T21:59:29.800Z,25.33
2018-05-16T22:01:57.526Z,28.53
2018-05-16T22:04:25.982Z,20.87
2018-05-16T22:06:54.392Z,20.80
2018-05-16T22:09:21.938Z,24.50
2018-05-16T22:11:49.948Z,25.70
2018-05-16T22:14:17.469Z,28.03
2018-05-16T22:16:44.975Z,21.60
2018-05-16T22:19:12.473Z,26.97
2018-05-16T22:21:39.966Z,25.07
2018-05-16T22:24:07.491Z,24.90
2018-05-16T22:26:35.069Z,32.57
2018-05-16T22:29:02.607Z,21.10
2018-05-16T22:31:35.731Z,27.10
2018-05-16T22:34:09.032Z,26.83
2018-05-16T22:36:42.254Z,25.93
2018-05-16T22:39:16.114Z,27.37
2018-05-16T22:41:49.343Z,32.17
2018-05-16T22:44:19.201Z,24.67
2018-05-16T22:46:46.710Z,27.13
2018-05-16T22:49:14.175Z,24.13
2018-05-16T22:51:42.476Z,26.90
2018-05-16T22:54:09.998Z,24.03
2018-05-16T22:56:37.551Z,19.30
2018-05-16T22:59:05.007Z,20.73
2018-05-16T23:01:33.291Z,24.93
2018-05-16T23:04:01.647Z,24.53
2018-05-16T23:06:29.165Z,24.77
2018-05-16T23:08:56.663Z,23.07
2018-05-16T23:11:24.199Z,26.77
2018-05-16T23:13:51.710Z,26.27
2018-05-16T23:16:19.980Z,18.77
2018-05-16T23:18:47.513Z,25.27
2018-05-16T23:21:15.005Z,22.50
2018-05-16T23:23:42.509Z,23.77
2018-05-16T23:26:10.018Z,28.50
2018-05-16T23:28:37.561Z,27.37
2018-05-16T23:31:05.793Z,27.63
2018-05-16T23:33:33.413Z,23.90
2018-05-16T23:36:01.081Z,26.70
2018-05-16T23:38:28.741Z,25.20
2018-05-16T23:40:56.301Z,25.23
2018-05-16T23:43:23.797Z,22.50
2018-05-16T23:45:51.384Z,27.73
2018-05-16T23:48:20.133Z,28.27
2018-05-16T23:50:47.621Z,25.97
2018-05-16T23:53:15.870Z,24.33
2018-05-16T23:55:43.391Z,27.73
2018-05-16T23:58:10.950Z,21.30
